sensor_id;sensor_type;location;lat;lon;timestamp;P1;durP1;ratioP1;P2;durP2;ratioP2
56321;SDS011;42227;6.376;-10.782;2024-01-15T00:02:07;13.70;;;7.93;;
56321;SDS011;42227;6.376;-10.782;2024-01-15T00:04:38;14.05;;;7.63;;
56321;SDS011;42227;6.376;-10.782;2024-01-15T00:07:08;17.60;;;8.27;;
56321;SDS011;42227;6.376;-10.782;2024-01-15T00:09:37;13.57;;;8.20;;
56321;SDS011;42227;6.376;-10.782;2024-01-15T00:12:05;11.52;;;7.65;;
56321;SDS011;42227;6.376;-10.782;2024-01-15T00:14:34;19.58;;;9.77;;
56321;SDS011;42227;6.376;-10.782;2024-01-15T00:17:02;10.50;;;8.25;;
56321;SDS011;42227;6.376;-10.782;2024-01-15T00:19:31;15.18;;;8.35;;
56321;SDS011;42227;6.376;-10.782;2024-01-15T00:21:59;9.82;;;7.93;;
56321;SDS011;42227;6.376;-10.782;2024-01-15T00:24:28;18.58;;;8.80;;
56321;SDS011;42227;6.376;-10.782;2024-01-15T00:26:56;15.00;;;7.60;;
56321;SDS011;42227;6.376;-10.782;2024-01-15T00:29:25;12.73;;;7.38;;
56321;SDS011;42227;6.376;-10.782;2024-01-15T00:31:53;15.57;;;7.85;;
56321;SDS011;42227;6.376;-10.782;2024-01-15T00:34:21;14.05;;;9.80;;
56321;SDS011;42227;6.376;-10.782;2024-01-15T00:36:50;13.50;;;8.13;;
56321;SDS011;42227;6.376;-10.782;2024-01-15T00:39:18;12.45;;;7.50;;
56321;SDS011;42227;6.376;-10.782;2024-01-15T00:41:47;12.07;;;8.43;;
56321;SDS011;42227;6.376;-10.782;2024-01-15T00:44:15;11.45;;;7.95;;
56321;SDS011;42227;6.376;-10.782;2024-01-15T00:46:44;8.32;;;7.40;;
56321;SDS011;42227;6.376;-10.782;2024-01-15T00:49:13;13.60;;;8.35;;
56321;SDS011;42227;6.376;-10.782;2024-01-15T00:51:42;7.75;;;6.90;;
56321;SDS011;42227;6.376;-10.782;2024-01-15T00:54:11;11.23;;;7.15;;
56321;SDS011;42227;6.376;-10.782;2024-01-15T00:56:39;14.65;;;8.20;;
56321;SDS011;42227;6.376;-10.782;2024-01-15T00:59:07;11.52;;;8.30;;
56321;SDS011;42227;6.376;-10.782;2024-01-15T01:01:36;13.35;;;8.15;;
56321;SDS011;42227;6.376;-10.782;2024-01-15T01:04:06;20.92;;;9.00;;
56321;SDS011;42227;6.376;-10.782;2024-01-15T01:06:35;12.00;;;8.05;;
56321;SDS011;42227;6.376;-10.782;2024-01-15T01:09:03;14.23;;;8.82;;
56321;SDS011;42227;6.376;-10.782;2024-01-15T01:11:32;18.52;;;7.35;;
56321;SDS011;42227;6.376;-10.782;2024-01-15T01:14:01;14.18;;;7.88;;
56321;SDS011;42227;6.376;-10.782;2024-01-15T01:16:29;10.20;;;7.05;;
56321;SDS011;42227;6.376;-10.782;2024-01-15T01:18:57;12.68;;;7.85;;
56321;SDS011;42227;6.376;-10.782;2024-01-15T01:21:26;12.80;;;7.55;;
56321;SDS011;42227;6.376;-10.782;2024-01-15T01:23:55;15.27;;;8.90;;
56321;SDS011;42227;6.376;-10.782;2024-01-15T01:26:23;13.93;;;9.32;;
56321;SDS011;42227;6.376;-10.782;2024-01-15T01:28:52;14.18;;;7.75;;
56321;SDS011;42227;6.376;-10.782;2024-01-15T01:31:20;11.40;;;8.32;;
56321;SDS011;42227;6.376;-10.782;2024-01-15T01:33:48;9.30;;;6.97;;
56321;SDS011;42227;6.376;-10.782;2024-01-15T01:36:17;9.10;;;7.18;;
56321;SDS011;42227;6.376;-10.782;2024-01-15T01:38:46;14.75;;;8.50;;
56321;SDS011;42227;6.376;-10.782;2024-01-15T01:41:14;11.27;;;6.65;;
56321;SDS011;42227;6.376;-10.782;2024-01-15T01:43:43;10.40;;;7.32;;
56321;SDS011;42227;6.376;-10.782;2024-01-15T01:46:11;14.27;;;8.48;;
56321;SDS011;42227;6.376;-10.782;2024-01-15T01:48:40;14.95;;;8.85;;
56321;SDS011;42227;6.376;-10.782;2024-01-15T01:51:08;21.83;;;9.68;;
56321;SDS011;42227;6.376;-10.782;2024-01-15T01:53:38;7.47;;;6.40;;
56321;SDS011;42227;6.376;-10.782;2024-01-15T01:56:07;23.08;;;7.25;;
56321;SDS011;42227;6.376;-10.782;2024-01-15T01:58:37;9.77;;;8.27;;
56321;SDS011;42227;6.376;-10.782;2024-01-15T02:01:05;10.88;;;7.88;;
56321;SDS011;42227;6.376;-10.782;2024-01-15T02:03:35;9.52;;;7.68;;
56321;SDS011;42227;6.376;-10.782;2024-01-15T02:06:04;20.40;;;8.52;;
56321;SDS011;42227;6.376;-10.782;2024-01-15T02:08:32;14.63;;;7.20;;
56321;SDS011;42227;6.376;-10.782;2024-01-15T02:11:01;10.93;;;7.22;;
56321;SDS011;42227;6.376;-10.782;2024-01-15T02:13:30;15.77;;;7.57;;
56321;SDS011;42227;6.376;-10.782;2024-01-15T02:15:58;16.17;;;8.57;;
56321;SDS011;42227;6.376;-10.782;2024-01-15T02:18:27;9.43;;;6.97;;
56321;SDS011;42227;6.376;-10.782;2024-01-15T02:20:58;15.45;;;8.38;;
56321;SDS011;42227;6.376;-10.782;2024-01-15T02:23:27;12.15;;;7.75;;
56321;SDS011;42227;6.376;-10.782;2024-01-15T02:25:55;9.45;;;7.45;;
56321;SDS011;42227;6.376;-10.782;2024-01-15T02:28:23;13.02;;;8.05;;
56321;SDS011;42227;6.376;-10.782;2024-01-15T02:30:51;12.90;;;7.97;;
56321;SDS011;42227;6.376;-10.782;2024-01-15T02:33:20;14.32;;;9.00;;
56321;SDS011;42227;6.376;-10.782;2024-01-15T02:35:49;16.67;;;8.80;;
56321;SDS011;42227;6.376;-10.782;2024-01-15T02:38:17;11.90;;;9.13;;
56321;SDS011;42227;6.376;-10.782;2024-01-15T02:40:45;17.35;;;12.45;;
56321;SDS011;42227;6.376;-10.782;2024-01-15T02:43:14;17.35;;;11.88;;
56321;SDS011;42227;6.376;-10.782;2024-01-15T02:45:42;19.83;;;12.38;;
56321;SDS011;42227;6.376;-10.782;2024-01-15T02:48:11;30.30;;;17.92;;
56321;SDS011;42227;6.376;-10.782;2024-01-15T02:50:39;23.80;;;12.77;;
56321;SDS011;42227;6.376;-10.782;2024-01-15T02:53:07;17.45;;;13.55;;
56321;SDS011;42227;6.376;-10.782;2024-01-15T02:55:36;16.92;;;12.60;;
56321;SDS011;42227;6.376;-10.782;2024-01-15T02:58:04;23.17;;;12.77;;
56321;SDS011;42227;6.376;-10.782;2024-01-15T03:00:33;16.48;;;12.55;;
56321;SDS011;42227;6.376;-10.782;2024-01-15T03:03:01;15.73;;;11.65;;
56321;SDS011;42227;6.376;-10.782;2024-01-15T03:05:29;19.88;;;14.20;;
56321;SDS011;42227;6.376;-10.782;2024-01-15T03:07:58;21.40;;;14.90;;
56321;SDS011;42227;6.376;-10.782;2024-01-15T03:10:26;27.58;;;16.15;;
56321;SDS011;42227;6.376;-10.782;2024-01-15T03:12:55;25.13;;;17.00;;
56321;SDS011;42227;6.376;-10.782;2024-01-15T03:16:16;25.80;;;14.75;;
56321;SDS011;42227;6.376;-10.782;2024-01-15T03:18:45;18.63;;;12.77;;
56321;SDS011;42227;6.376;-10.782;2024-01-15T03:21:13;20.55;;;10.70;;
56321;SDS011;42227;6.376;-10.782;2024-01-15T03:23:42;15.77;;;11.32;;
56321;SDS011;42227;6.376;-10.782;2024-01-15T03:26:10;22.20;;;12.40;;
56321;SDS011;42227;6.376;-10.782;2024-01-15T03:28:38;17.33;;;13.38;;
56321;SDS011;42227;6.376;-10.782;2024-01-15T03:31:07;24.02;;;13.60;;
56321;SDS011;42227;6.376;-10.782;2024-01-15T03:33:36;24.20;;;11.68;;
56321;SDS011;42227;6.376;-10.782;2024-01-15T03:36:04;16.08;;;12.63;;
56321;SDS011;42227;6.376;-10.782;2024-01-15T03:38:33;23.35;;;12.77;;
56321;SDS011;42227;6.376;-10.782;2024-01-15T03:41:01;18.02;;;13.55;;
56321;SDS011;42227;6.376;-10.782;2024-01-15T03:43:30;26.80;;;14.27;;
56321;SDS011;42227;6.376;-10.782;2024-01-15T03:45:58;39.13;;;14.45;;
56321;SDS011;42227;6.376;-10.782;2024-01-15T03:48:27;20.02;;;13.68;;
56321;SDS011;42227;6.376;-10.782;2024-01-15T03:50:56;26.85;;;13.27;;
56321;SDS011;42227;6.376;-10.782;2024-01-15T03:53:24;17.50;;;13.30;;
56321;SDS011;42227;6.376;-10.782;2024-01-15T03:55:53;23.50;;;14.80;;
56321;SDS011;42227;6.376;-10.782;2024-01-15T03:58:21;25.25;;;13.93;;
56321;SDS011;42227;6.376;-10.782;2024-01-15T04:00:50;26.52;;;14.90;;
56321;SDS011;42227;6.376;-10.782;2024-01-15T04:03:18;27.15;;;15.82;;
56321;SDS011;42227;6.376;-10.782;2024-01-15T04:05:47;22.55;;;15.07;;
56321;SDS011;42227;6.376;-10.782;2024-01-15T04:08:15;28.08;;;15.85;;
56321;SDS011;42227;6.376;-10.782;2024-01-15T04:10:43;22.33;;;15.18;;
56321;SDS011;42227;6.376;-10.782;2024-01-15T04:13:12;21.40;;;14.98;;
56321;SDS011;42227;6.376;-10.782;2024-01-15T04:15:40;27.63;;;18.52;;
56321;SDS011;42227;6.376;-10.782;2024-01-15T04:18:08;21.05;;;14.73;;
56321;SDS011;42227;6.376;-10.782;2024-01-15T04:20:37;21.73;;;16.23;;
56321;SDS011;42227;6.376;-10.782;2024-01-15T04:23:05;27.17;;;15.75;;
56321;SDS011;42227;6.376;-10.782;2024-01-15T04:25:34;19.83;;;14.27;;
56321;SDS011;42227;6.376;-10.782;2024-01-15T04:28:02;22.25;;;14.48;;
56321;SDS011;42227;6.376;-10.782;2024-01-15T04:30:31;18.77;;;13.63;;
56321;SDS011;42227;6.376;-10.782;2024-01-15T04:32:59;21.08;;;14.70;;
56321;SDS011;42227;6.376;-10.782;2024-01-15T04:35:28;18.85;;;12.98;;
56321;SDS011;42227;6.376;-10.782;2024-01-15T04:37:57;29.40;;;13.90;;
56321;SDS011;42227;6.376;-10.782;2024-01-15T04:40:25;23.95;;;13.48;;
56321;SDS011;42227;6.376;-10.782;2024-01-15T04:42:54;22.25;;;14.18;;
56321;SDS011;42227;6.376;-10.782;2024-01-15T04:45:22;27.05;;;15.85;;
56321;SDS011;42227;6.376;-10.782;2024-01-15T04:47:51;20.95;;;13.55;;
56321;SDS011;42227;6.376;-10.782;2024-01-15T04:50:19;23.17;;;14.45;;
56321;SDS011;42227;6.376;-10.782;2024-01-15T04:52:48;19.60;;;13.02;;
56321;SDS011;42227;6.376;-10.782;2024-01-15T04:55:17;20.02;;;16.88;;
56321;SDS011;42227;6.376;-10.782;2024-01-15T04:57:45;18.92;;;15.18;;
56321;SDS011;42227;6.376;-10.782;2024-01-15T05:00:14;27.35;;;15.45;;
56321;SDS011;42227;6.376;-10.782;2024-01-15T05:02:43;22.95;;;15.93;;
56321;SDS011;42227;6.376;-10.782;2024-01-15T05:05:11;26.33;;;16.08;;
56321;SDS011;42227;6.376;-10.782;2024-01-15T05:07:39;132.02;;;87.65;;
56321;SDS011;42227;6.376;-10.782;2024-01-15T05:10:08;97.85;;;70.28;;
56321;SDS011;42227;6.376;-10.782;2024-01-15T05:12:36;90.78;;;64.82;;
56321;SDS011;42227;6.376;-10.782;2024-01-15T05:15:05;103.22;;;71.15;;
56321;SDS011;42227;6.376;-10.782;2024-01-15T05:17:33;224.57;;;158.63;;
56321;SDS011;42227;6.376;-10.782;2024-01-15T05:20:02;104.10;;;71.53;;
56321;SDS011;42227;6.376;-10.782;2024-01-15T05:22:30;66.28;;;45.03;;
56321;SDS011;42227;6.376;-10.782;2024-01-15T05:24:59;53.47;;;28.02;;
56321;SDS011;42227;6.376;-10.782;2024-01-15T05:27:27;34.65;;;23.83;;
56321;SDS011;42227;6.376;-10.782;2024-01-15T05:29:55;33.25;;;22.80;;
56321;SDS011;42227;6.376;-10.782;2024-01-15T05:32:24;32.65;;;24.67;;
56321;SDS011;42227;6.376;-10.782;2024-01-15T05:34:52;28.60;;;21.48;;
56321;SDS011;42227;6.376;-10.782;2024-01-15T05:37:21;40.95;;;24.38;;
56321;SDS011;42227;6.376;-10.782;2024-01-15T05:39:49;36.03;;;26.20;;
56321;SDS011;42227;6.376;-10.782;2024-01-15T05:42:18;40.35;;;24.60;;
56321;SDS011;42227;6.376;-10.782;2024-01-15T05:44:46;36.08;;;22.05;;
56321;SDS011;42227;6.376;-10.782;2024-01-15T05:47:14;36.10;;;21.05;;
56321;SDS011;42227;6.376;-10.782;2024-01-15T05:49:43;28.88;;;19.30;;
56321;SDS011;42227;6.376;-10.782;2024-01-15T05:52:11;39.30;;;21.75;;
56321;SDS011;42227;6.376;-10.782;2024-01-15T05:54:42;40.40;;;20.50;;
56321;SDS011;42227;6.376;-10.782;2024-01-15T05:57:11;36.50;;;22.33;;
56321;SDS011;42227;6.376;-10.782;2024-01-15T05:59:39;30.88;;;18.13;;
56321;SDS011;42227;6.376;-10.782;2024-01-15T06:02:08;25.38;;;17.05;;
56321;SDS011;42227;6.376;-10.782;2024-01-15T06:04:38;21.08;;;14.35;;
56321;SDS011;42227;6.376;-10.782;2024-01-15T06:07:06;15.48;;;13.45;;
56321;SDS011;42227;6.376;-10.782;2024-01-15T06:09:35;23.02;;;15.10;;
56321;SDS011;42227;6.376;-10.782;2024-01-15T06:12:04;26.08;;;15.45;;
56321;SDS011;42227;6.376;-10.782;2024-01-15T06:14:33;29.83;;;17.90;;
56321;SDS011;42227;6.376;-10.782;2024-01-15T06:17:01;21.70;;;16.45;;
56321;SDS011;42227;6.376;-10.782;2024-01-15T06:19:29;24.20;;;16.08;;
56321;SDS011;42227;6.376;-10.782;2024-01-15T06:21:58;24.42;;;14.90;;
56321;SDS011;42227;6.376;-10.782;2024-01-15T06:24:27;17.98;;;13.95;;
56321;SDS011;42227;6.376;-10.782;2024-01-15T06:26:55;23.10;;;15.88;;
56321;SDS011;42227;6.376;-10.782;2024-01-15T06:29:25;27.95;;;17.67;;
56321;SDS011;42227;6.376;-10.782;2024-01-15T06:31:53;31.75;;;19.48;;
56321;SDS011;42227;6.376;-10.782;2024-01-15T06:34:22;27.92;;;19.38;;
56321;SDS011;42227;6.376;-10.782;2024-01-15T06:36:50;31.52;;;19.75;;
56321;SDS011;42227;6.376;-10.782;2024-01-15T06:39:19;35.35;;;19.75;;
56321;SDS011;42227;6.376;-10.782;2024-01-15T06:41:47;34.53;;;17.90;;
56321;SDS011;42227;6.376;-10.782;2024-01-15T06:44:16;34.10;;;19.48;;
56321;SDS011;42227;6.376;-10.782;2024-01-15T06:46:45;33.17;;;24.95;;
56321;SDS011;42227;6.376;-10.782;2024-01-15T06:49:13;33.72;;;25.05;;
56321;SDS011;42227;6.376;-10.782;2024-01-15T06:51:42;32.05;;;20.23;;
56321;SDS011;42227;6.376;-10.782;2024-01-15T06:54:14;29.98;;;20.52;;
56321;SDS011;42227;6.376;-10.782;2024-01-15T06:56:42;27.08;;;19.25;;
56321;SDS011;42227;6.376;-10.782;2024-01-15T06:59:11;34.80;;;19.17;;
56321;SDS011;42227;6.376;-10.782;2024-01-15T07:01:43;23.40;;;18.58;;
56321;SDS011;42227;6.376;-10.782;2024-01-15T07:04:11;27.45;;;18.95;;
56321;SDS011;42227;6.376;-10.782;2024-01-15T07:06:40;24.42;;;19.92;;
56321;SDS011;42227;6.376;-10.782;2024-01-15T07:09:08;23.67;;;19.52;;
56321;SDS011;42227;6.376;-10.782;2024-01-15T07:11:37;34.97;;;17.90;;
56321;SDS011;42227;6.376;-10.782;2024-01-15T07:14:05;36.20;;;19.35;;
56321;SDS011;42227;6.376;-10.782;2024-01-15T07:16:34;26.10;;;17.40;;
56321;SDS011;42227;6.376;-10.782;2024-01-15T07:19:04;25.25;;;15.75;;
56321;SDS011;42227;6.376;-10.782;2024-01-15T07:21:33;28.63;;;16.10;;
56321;SDS011;42227;6.376;-10.782;2024-01-15T07:24:01;23.17;;;15.10;;
56321;SDS011;42227;6.376;-10.782;2024-01-15T07:26:30;27.70;;;17.77;;
56321;SDS011;42227;6.376;-10.782;2024-01-15T07:28:58;26.45;;;18.20;;
56321;SDS011;42227;6.376;-10.782;2024-01-15T07:31:26;34.85;;;19.10;;
56321;SDS011;42227;6.376;-10.782;2024-01-15T07:33:55;25.38;;;16.55;;
56321;SDS011;42227;6.376;-10.782;2024-01-15T07:36:24;23.33;;;17.55;;
56321;SDS011;42227;6.376;-10.782;2024-01-15T07:38:53;27.10;;;18.83;;
56321;SDS011;42227;6.376;-10.782;2024-01-15T07:41:21;21.45;;;15.20;;
56321;SDS011;42227;6.376;-10.782;2024-01-15T07:43:49;26.13;;;16.67;;
56321;SDS011;42227;6.376;-10.782;2024-01-15T07:46:20;23.42;;;17.15;;
56321;SDS011;42227;6.376;-10.782;2024-01-15T07:48:48;21.52;;;17.48;;
56321;SDS011;42227;6.376;-10.782;2024-01-15T07:51:17;28.05;;;18.33;;
56321;SDS011;42227;6.376;-10.782;2024-01-15T07:53:45;20.35;;;14.90;;
56321;SDS011;42227;6.376;-10.782;2024-01-15T07:56:13;20.42;;;14.65;;
56321;SDS011;42227;6.376;-10.782;2024-01-15T07:58:42;24.40;;;15.15;;
56321;SDS011;42227;6.376;-10.782;2024-01-15T08:01:10;27.15;;;15.27;;
56321;SDS011;42227;6.376;-10.782;2024-01-15T08:03:39;47.25;;;16.00;;
56321;SDS011;42227;6.376;-10.782;2024-01-15T08:06:07;24.67;;;16.42;;
56321;SDS011;42227;6.376;-10.782;2024-01-15T08:08:36;30.75;;;17.48;;
56321;SDS011;42227;6.376;-10.782;2024-01-15T08:11:05;26.67;;;18.08;;
56321;SDS011;42227;6.376;-10.782;2024-01-15T08:13:34;19.30;;;13.30;;
56321;SDS011;42227;6.376;-10.782;2024-01-15T08:16:02;18.67;;;14.23;;
56321;SDS011;42227;6.376;-10.782;2024-01-15T08:18:31;19.50;;;13.60;;
56321;SDS011;42227;6.376;-10.782;2024-01-15T08:20:59;16.65;;;12.20;;
56321;SDS011;42227;6.376;-10.782;2024-01-15T08:23:28;16.48;;;12.80;;
56321;SDS011;42227;6.376;-10.782;2024-01-15T08:25:56;22.23;;;13.40;;
56321;SDS011;42227;6.376;-10.782;2024-01-15T08:29:34;18.15;;;12.70;;
56321;SDS011;42227;6.376;-10.782;2024-01-15T08:32:02;18.98;;;12.38;;
56321;SDS011;42227;6.376;-10.782;2024-01-15T08:34:31;18.52;;;13.07;;
56321;SDS011;42227;6.376;-10.782;2024-01-15T08:36:59;18.65;;;12.63;;
56321;SDS011;42227;6.376;-10.782;2024-01-15T08:39:28;17.08;;;12.30;;
56321;SDS011;42227;6.376;-10.782;2024-01-15T08:41:56;16.98;;;10.65;;
56321;SDS011;42227;6.376;-10.782;2024-01-15T08:44:24;15.85;;;12.85;;
56321;SDS011;42227;6.376;-10.782;2024-01-15T08:46:53;25.35;;;13.98;;
56321;SDS011;42227;6.376;-10.782;2024-01-15T08:49:21;22.67;;;13.45;;
56321;SDS011;42227;6.376;-10.782;2024-01-15T08:51:50;21.00;;;12.68;;
56321;SDS011;42227;6.376;-10.782;2024-01-15T08:54:19;17.80;;;14.02;;
56321;SDS011;42227;6.376;-10.782;2024-01-15T08:56:47;25.10;;;13.63;;
56321;SDS011;42227;6.376;-10.782;2024-01-15T08:59:16;23.60;;;12.93;;
56321;SDS011;42227;6.376;-10.782;2024-01-15T09:01:44;19.08;;;10.63;;
56321;SDS011;42227;6.376;-10.782;2024-01-15T09:04:12;21.58;;;12.40;;
56321;SDS011;42227;6.376;-10.782;2024-01-15T09:06:42;23.02;;;12.07;;
56321;SDS011;42227;6.376;-10.782;2024-01-15T09:09:13;20.65;;;13.98;;
56321;SDS011;42227;6.376;-10.782;2024-01-15T09:11:41;19.65;;;12.00;;
56321;SDS011;42227;6.376;-10.782;2024-01-15T09:14:10;22.58;;;12.20;;
56321;SDS011;42227;6.376;-10.782;2024-01-15T09:16:40;20.08;;;12.57;;
56321;SDS011;42227;6.376;-10.782;2024-01-15T09:19:08;33.78;;;15.02;;
56321;SDS011;42227;6.376;-10.782;2024-01-15T09:21:38;28.25;;;14.77;;
56321;SDS011;42227;6.376;-10.782;2024-01-15T09:24:06;26.00;;;11.57;;
56321;SDS011;42227;6.376;-10.782;2024-01-15T09:26:35;40.13;;;13.35;;
56321;SDS011;42227;6.376;-10.782;2024-01-15T09:29:03;27.00;;;11.95;;
56321;SDS011;42227;6.376;-10.782;2024-01-15T09:31:31;22.23;;;11.60;;
56321;SDS011;42227;6.376;-10.782;2024-01-15T09:34:00;18.55;;;11.20;;
56321;SDS011;42227;6.376;-10.782;2024-01-15T09:36:28;25.00;;;11.85;;
56321;SDS011;42227;6.376;-10.782;2024-01-15T09:38:57;16.33;;;11.82;;
56321;SDS011;42227;6.376;-10.782;2024-01-15T09:41:25;13.88;;;10.88;;
56321;SDS011;42227;6.376;-10.782;2024-01-15T09:43:54;15.52;;;10.55;;
56321;SDS011;42227;6.376;-10.782;2024-01-15T09:46:22;17.95;;;10.30;;
56321;SDS011;42227;6.376;-10.782;2024-01-15T09:48:50;17.35;;;10.13;;
56321;SDS011;42227;6.376;-10.782;2024-01-15T09:55:43;17.48;;;11.00;;
56321;SDS011;42227;6.376;-10.782;2024-01-15T09:58:12;20.20;;;9.20;;
56321;SDS011;42227;6.376;-10.782;2024-01-15T10:00:41;11.02;;;7.65;;
56321;SDS011;42227;6.376;-10.782;2024-01-15T10:03:12;15.40;;;9.95;;
56321;SDS011;42227;6.376;-10.782;2024-01-15T10:05:41;19.17;;;10.65;;
56321;SDS011;42227;6.376;-10.782;2024-01-15T10:08:11;25.15;;;11.35;;
56321;SDS011;42227;6.376;-10.782;2024-01-15T10:10:39;15.82;;;10.10;;
56321;SDS011;42227;6.376;-10.782;2024-01-15T10:13:08;20.98;;;10.88;;
56321;SDS011;42227;6.376;-10.782;2024-01-15T10:15:38;20.77;;;11.93;;
56321;SDS011;42227;6.376;-10.782;2024-01-15T10:18:06;25.52;;;11.25;;
56321;SDS011;42227;6.376;-10.782;2024-01-15T10:20:35;18.55;;;11.77;;
56321;SDS011;42227;6.376;-10.782;2024-01-15T10:23:03;14.55;;;11.20;;
56321;SDS011;42227;6.376;-10.782;2024-01-15T10:25:32;12.25;;;10.25;;
56321;SDS011;42227;6.376;-10.782;2024-01-15T10:28:01;23.77;;;11.35;;
56321;SDS011;42227;6.376;-10.782;2024-01-15T10:30:34;24.75;;;12.73;;
56321;SDS011;42227;6.376;-10.782;2024-01-15T10:33:03;18.63;;;12.35;;
56321;SDS011;42227;6.376;-10.782;2024-01-15T10:35:33;14.65;;;9.27;;
56321;SDS011;42227;6.376;-10.782;2024-01-15T10:38:02;15.43;;;9.40;;
56321;SDS011;42227;6.376;-10.782;2024-01-15T10:40:31;15.00;;;8.70;;
56321;SDS011;42227;6.376;-10.782;2024-01-15T10:43:00;15.60;;;8.98;;
56321;SDS011;42227;6.376;-10.782;2024-01-15T10:45:28;22.80;;;11.23;;
56321;SDS011;42227;6.376;-10.782;2024-01-15T10:47:56;17.30;;;9.70;;
56321;SDS011;42227;6.376;-10.782;2024-01-15T10:50:26;15.75;;;8.40;;
56321;SDS011;42227;6.376;-10.782;2024-01-15T10:52:54;18.23;;;8.77;;
56321;SDS011;42227;6.376;-10.782;2024-01-15T10:55:24;13.80;;;7.70;;
56321;SDS011;42227;6.376;-10.782;2024-01-15T10:57:59;10.27;;;7.82;;
56321;SDS011;42227;6.376;-10.782;2024-01-15T11:00:28;15.65;;;8.98;;
56321;SDS011;42227;6.376;-10.782;2024-01-15T11:02:59;19.83;;;8.88;;
56321;SDS011;42227;6.376;-10.782;2024-01-15T11:05:30;14.32;;;8.68;;
56321;SDS011;42227;6.376;-10.782;2024-01-15T11:08:01;23.77;;;11.10;;
56321;SDS011;42227;6.376;-10.782;2024-01-15T11:10:42;15.57;;;9.50;;
56321;SDS011;42227;6.376;-10.782;2024-01-15T11:13:15;10.30;;;7.32;;
56321;SDS011;42227;6.376;-10.782;2024-01-15T11:16:08;17.20;;;8.25;;
56321;SDS011;42227;6.376;-10.782;2024-01-15T11:21:42;9.88;;;7.25;;
56321;SDS011;42227;6.376;-10.782;2024-01-15T11:24:11;10.68;;;7.10;;
56321;SDS011;42227;6.376;-10.782;2024-01-15T11:27:07;10.05;;;6.88;;
56321;SDS011;42227;6.376;-10.782;2024-01-15T11:29:36;17.52;;;7.70;;
56321;SDS011;42227;6.376;-10.782;2024-01-15T11:32:08;19.40;;;9.10;;
56321;SDS011;42227;6.376;-10.782;2024-01-15T11:35:10;13.93;;;7.60;;
56321;SDS011;42227;6.376;-10.782;2024-01-15T11:40:37;12.32;;;7.40;;
56321;SDS011;42227;6.376;-10.782;2024-01-15T11:43:07;13.75;;;7.40;;
56321;SDS011;42227;6.376;-10.782;2024-01-15T11:45:36;18.10;;;9.15;;
56321;SDS011;42227;6.376;-10.782;2024-01-15T11:50:41;26.63;;;7.22;;
56321;SDS011;42227;6.376;-10.782;2024-01-15T11:53:13;13.97;;;7.73;;
56321;SDS011;42227;6.376;-10.782;2024-01-15T11:55:45;13.30;;;7.63;;
56321;SDS011;42227;6.376;-10.782;2024-01-15T11:58:13;18.52;;;8.02;;
56321;SDS011;42227;6.376;-10.782;2024-01-15T12:00:47;14.10;;;9.65;;
56321;SDS011;42227;6.376;-10.782;2024-01-15T12:03:16;17.40;;;7.28;;
56321;SDS011;42227;6.376;-10.782;2024-01-15T12:05:45;11.38;;;7.13;;
56321;SDS011;42227;6.376;-10.782;2024-01-15T12:08:13;10.93;;;7.55;;
56321;SDS011;42227;6.376;-10.782;2024-01-15T12:10:41;19.10;;;8.80;;
56321;SDS011;42227;6.376;-10.782;2024-01-15T12:13:11;14.55;;;7.82;;
56321;SDS011;42227;6.376;-10.782;2024-01-15T12:15:43;22.23;;;8.60;;
56321;SDS011;42227;6.376;-10.782;2024-01-15T12:18:14;16.80;;;9.70;;
56321;SDS011;42227;6.376;-10.782;2024-01-15T12:20:44;17.20;;;9.07;;
56321;SDS011;42227;6.376;-10.782;2024-01-15T12:23:13;15.27;;;7.13;;
56321;SDS011;42227;6.376;-10.782;2024-01-15T12:25:42;15.30;;;7.85;;
56321;SDS011;42227;6.376;-10.782;2024-01-15T12:28:10;18.17;;;8.50;;
56321;SDS011;42227;6.376;-10.782;2024-01-15T12:30:39;13.00;;;6.82;;
56321;SDS011;42227;6.376;-10.782;2024-01-15T12:33:08;9.52;;;6.93;;
56321;SDS011;42227;6.376;-10.782;2024-01-15T12:35:36;15.98;;;6.85;;
56321;SDS011;42227;6.376;-10.782;2024-01-15T12:38:05;11.18;;;7.55;;
56321;SDS011;42227;6.376;-10.782;2024-01-15T12:40:33;12.10;;;7.03;;
56321;SDS011;42227;6.376;-10.782;2024-01-15T12:43:05;21.38;;;8.15;;
56321;SDS011;42227;6.376;-10.782;2024-01-15T12:45:34;15.73;;;8.83;;
56321;SDS011;42227;6.376;-10.782;2024-01-15T12:48:04;14.68;;;8.00;;
56321;SDS011;42227;6.376;-10.782;2024-01-15T12:50:33;20.45;;;8.18;;
56321;SDS011;42227;6.376;-10.782;2024-01-15T12:53:01;12.63;;;7.72;;
56321;SDS011;42227;6.376;-10.782;2024-01-15T12:55:30;12.05;;;7.50;;
56321;SDS011;42227;6.376;-10.782;2024-01-15T12:57:58;20.52;;;9.45;;
56321;SDS011;42227;6.376;-10.782;2024-01-15T13:00:27;16.88;;;7.20;;
56321;SDS011;42227;6.376;-10.782;2024-01-15T13:02:56;11.05;;;7.05;;
56321;SDS011;42227;6.376;-10.782;2024-01-15T13:05:25;9.23;;;6.88;;
56321;SDS011;42227;6.376;-10.782;2024-01-15T13:07:55;13.77;;;6.90;;
56321;SDS011;42227;6.376;-10.782;2024-01-15T13:10:23;13.43;;;6.65;;
56321;SDS011;42227;6.376;-10.782;2024-01-15T13:12:52;12.13;;;7.10;;
56321;SDS011;42227;6.376;-10.782;2024-01-15T13:15:21;8.82;;;5.70;;
56321;SDS011;42227;6.376;-10.782;2024-01-15T13:17:50;18.23;;;7.95;;
56321;SDS011;42227;6.376;-10.782;2024-01-15T13:20:18;17.35;;;6.93;;
56321;SDS011;42227;6.376;-10.782;2024-01-15T13:22:46;13.48;;;8.50;;
56321;SDS011;42227;6.376;-10.782;2024-01-15T13:25:15;20.67;;;7.88;;
56321;SDS011;42227;6.376;-10.782;2024-01-15T13:27:43;10.50;;;6.03;;
56321;SDS011;42227;6.376;-10.782;2024-01-15T13:30:12;12.55;;;7.15;;
56321;SDS011;42227;6.376;-10.782;2024-01-15T13:32:41;17.83;;;7.85;;
56321;SDS011;42227;6.376;-10.782;2024-01-15T13:35:09;13.55;;;6.53;;
56321;SDS011;42227;6.376;-10.782;2024-01-15T13:37:38;15.13;;;7.32;;
56321;SDS011;42227;6.376;-10.782;2024-01-15T13:40:07;15.55;;;7.78;;
56321;SDS011;42227;6.376;-10.782;2024-01-15T13:42:35;11.38;;;7.20;;
56321;SDS011;42227;6.376;-10.782;2024-01-15T13:45:05;9.52;;;6.05;;
56321;SDS011;42227;6.376;-10.782;2024-01-15T13:47:33;16.90;;;8.30;;
56321;SDS011;42227;6.376;-10.782;2024-01-15T13:50:02;23.38;;;7.05;;
56321;SDS011;42227;6.376;-10.782;2024-01-15T13:52:30;13.02;;;6.90;;
56321;SDS011;42227;6.376;-10.782;2024-01-15T13:54:59;11.80;;;7.22;;
56321;SDS011;42227;6.376;-10.782;2024-01-15T13:57:27;12.25;;;6.22;;
56321;SDS011;42227;6.376;-10.782;2024-01-15T13:59:56;11.60;;;8.30;;
56321;SDS011;42227;6.376;-10.782;2024-01-15T14:02:24;11.27;;;6.68;;
56321;SDS011;42227;6.376;-10.782;2024-01-15T14:04:53;18.80;;;7.90;;
56321;SDS011;42227;6.376;-10.782;2024-01-15T14:07:22;24.85;;;6.97;;
56321;SDS011;42227;6.376;-10.782;2024-01-15T14:09:50;15.32;;;6.60;;
56321;SDS011;42227;6.376;-10.782;2024-01-15T14:12:19;14.50;;;6.63;;
56321;SDS011;42227;6.376;-10.782;2024-01-15T14:14:47;12.10;;;7.03;;
56321;SDS011;42227;6.376;-10.782;2024-01-15T14:17:15;8.70;;;6.57;;
56321;SDS011;42227;6.376;-10.782;2024-01-15T14:19:44;17.15;;;8.57;;
56321;SDS011;42227;6.376;-10.782;2024-01-15T14:22:12;9.43;;;7.07;;
56321;SDS011;42227;6.376;-10.782;2024-01-15T14:24:41;19.50;;;6.55;;
56321;SDS011;42227;6.376;-10.782;2024-01-15T14:27:09;9.75;;;6.18;;
56321;SDS011;42227;6.376;-10.782;2024-01-15T14:29:38;18.05;;;8.43;;
56321;SDS011;42227;6.376;-10.782;2024-01-15T14:32:06;10.38;;;7.45;;
56321;SDS011;42227;6.376;-10.782;2024-01-15T14:34:34;10.35;;;7.07;;
56321;SDS011;42227;6.376;-10.782;2024-01-15T14:37:03;15.07;;;8.82;;
56321;SDS011;42227;6.376;-10.782;2024-01-15T14:39:31;12.20;;;7.15;;
56321;SDS011;42227;6.376;-10.782;2024-01-15T14:42:00;15.02;;;7.68;;